Nearby METAR Reports


Data Updates Approximately Every Four Hours

METAR is the international standard code format for hourly surface weather observations which is analogous to the SA coding currently used in the US. The acronym roughly translates from French as Aviation Routine Weather Report. SPECI is merely the code name given to METAR formatted products which are issued on a special non-routine basis as dictated by changing meteorological conditions. The SPECI acronym roughly translates as Aviation Selected Special Weather Report.

KSLH - Cheboygan, Michigan, USA
Distance from station: W 9mi, 14km
Updated: 06/17/2019 3:36am
Clear
Clear
 Wind from calm
Wind: Calm
Temperature: 46°F , 8°C
Dew Point: 45°F , 7°C
Humidity: 93%
Barometer: 29.99 inHg , 1015.6 hPa
Clouds: Clear
Visibility: 10 miles , 16 km
2019/06/17 07:36 KSLH 170736Z AUTO 00000KT 10SM CLR 08/07 A2999 RMK AO2 T00790074
KMCD - Mackinac Island, Michigan, USA
Distance from station: NW 19mi, 31km
Updated: 06/17/2019 3:36am
Partly cloudy
Partly cloudy
 Wind from N
Wind: N 5 mph , 7 km/h
Temperature: 48°F , 9°C
Wind Chill: 46°F , 8°C
Dew Point: 45°F , 7°C
Humidity: 87%
Barometer: 30.00 inHg , 1015.9 hPa
Clouds: Partly cloudy
Visibility: 10 miles , 16 km
Cloud details: Partly cloudy 11000 ft
2019/06/17 07:36 KMCD 170736Z AUTO 36004KT 10SM SCT110 09/07 A3000 RMK AO2 T00850073
 
KPLN - Pellston, Michigan, USA
Distance from station: WSW 24mi, 38km
Updated: 06/17/2019 2:54am
Few Clouds
Few Clouds
 Wind from calm
Wind: Calm
Temperature: 46°F , 8°C
Dew Point: 45°F , 7°C
Humidity: 93%
Barometer: 30.01 inHg , 1016.3 hPa
Clouds: Few Clouds
Visibility: 10 miles , 16 km
Cloud details: Few Clouds 10000 ft
2019/06/17 06:54 KPLN 170654Z AUTO 00000KT 10SM FEW100 08/07 A3001 RMK AO2 SLP164 T00780067
KPZQ - Rogers City, Michigan, USA
Distance from station: SE 31mi, 50km
Updated: 06/17/2019 3:36am
Clear
Clear
 Wind from calm
Wind: Calm
Temperature: 45°F , 7°C
Dew Point: 43°F , 6°C
Humidity: 93%
Barometer: 30.01 inHg , 1016.3 hPa
Clouds: Clear
Visibility: 10 miles , 16 km
2019/06/17 07:36 KPZQ 170736Z AUTO 00000KT 10SM CLR 07/06 A3001 RMK AO2 T00690062
 
KMGN - Harbor Springs, Michigan, USA
Distance from station: WSW 32mi, 52km
Updated: 06/17/2019 3:38am
Clear
Clear
 Wind from NE
Wind: NE 5 mph , 7 km/h
Temperature: 46°F , 8°C
Wind Chill: 44°F , 7°C
Dew Point: 45°F , 7°C
Humidity: 93%
Barometer: 29.99 inHg , 1015.6 hPa
Clouds: Clear
Visibility: 10 miles , 16 km
2019/06/17 07:38 KMGN 170738Z AUTO 05004KT 10SM CLR 08/07 A2999 RMK AO2 T00830077
KDRM - Drummond Is, Michigan, USA
Distance from station: NE 36mi, 59km
Updated: 06/17/2019 3:35am
Partly cloudy
Partly cloudy
 Wind from calm
Wind: Calm
Temperature: 48°F , 9°C
Dew Point: 46°F , 8°C
Humidity: 94%
Barometer: 29.99 inHg , 1015.6 hPa
Clouds: Partly cloudy
Visibility: 10 miles , 16 km
Cloud details: Partly cloudy 12000 ft
2019/06/17 07:35 KDRM 170735Z AUTO 00000KT 10SM SCT120 09/08 A2999 RMK AO2 T00850077
 
KCIU - Chippewa Intl, Michigan, USA
Distance from station: N 41mi, 66km
Updated: 06/17/2019 2:56am
Clear
Clear
 Wind from NW
Wind: NW 5 mph , 7 km/h
Temperature: 46°F , 8°C
Wind Chill: 44°F , 7°C
Dew Point: 43°F , 6°C
Humidity: 87%
Barometer: 30.01 inHg , 1016.3 hPa
Clouds: Clear
Visibility: 10 miles , 16 km
2019/06/17 06:56 KCIU 170656Z AUTO 32004KT 10SM CLR 08/06 A3001 RMK AO2 SLP161 T00830056
KGLR - Gaylord, Michigan, USA
Distance from station: SSW 48mi, 77km
Updated: 06/17/2019 2:53am
Clear
Clear
 Wind from N
Wind: N 3 mph , 6 km/h
Temperature: 46°F , 8°C
Dew Point: 46°F , 8°C
Humidity: 100%
Barometer: 29.99 inHg , 1015.6 hPa
Clouds: Clear
Visibility: 10 miles , 16 km
2019/06/17 06:53 KGLR 170653Z AUTO 35003KT 10SM CLR 08/08 A2999 RMK AO2 SLP159 T00830078
 
KCVX - Charlevoix, Michigan, USA
Distance from station: WSW 52mi, 83km
Updated: 06/17/2019 3:36am
Clear
Clear
 Wind from calm
Wind: Calm
Temperature: 46°F , 8°C
Dew Point: 46°F , 8°C
Humidity: 100%
Barometer: 30.02 inHg , 1016.6 hPa
Clouds: Clear
Visibility: 10 miles , 16 km
2019/06/17 07:36 KCVX 170736Z AUTO 00000KT 10SM CLR 08/08 A3002 RMK AO2 T00830078
KANJ - Sault Ste Marie, Michigan, USA
Distance from station: N 56mi, 89km
Updated: 06/17/2019 2:55am
Few Clouds
Few Clouds
 Wind from W
Wind: W 3 mph , 6 km/h
Temperature: 48°F , 9°C
Dew Point: 45°F , 7°C
Humidity: 87%
Barometer: 29.99 inHg , 1015.6 hPa
Clouds: Few Clouds
Visibility: 10 miles , 16 km
Cloud details: Few Clouds 11000 ft
2019/06/17 06:55 KANJ 170655Z AUTO 26003KT 10SM FEW110 09/07 A2999 RMK AO2 SLP156 T00940067
 
KAPN - Alpena, Michigan, USA
Distance from station: SE 56mi, 89km
Updated: 06/17/2019 2:54am
Clear
Clear
 Wind from calm
Wind: Calm
Temperature: 43°F , 6°C
Dew Point: 43°F , 6°C
Humidity: 100%
Barometer: 30.00 inHg , 1015.9 hPa
Clouds: Clear
Visibility: 10 miles , 16 km
2019/06/17 06:54 KAPN 170654Z AUTO 00000KT 10SM CLR 06/06 A3000 RMK AO2 SLP163 T00610056
CYAM - Sault Ste Marie, Ontario, Canada
Distance from station: N 56mi, 90km
Updated: 06/17/2019 3:00am
Few Clouds
Few Clouds
 Wind from W
Wind: W 6 mph , 9 km/h
Temperature: 46°F , 8°C
Wind Chill: 43°F , 6°C
Dew Point: 43°F , 6°C
Humidity: 87%
Barometer: 30.00 inHg , 1015.9 hPa
Clouds: Few Clouds
Visibility: 15 miles , 24 km
Cloud details: Few Clouds 6100 ft
Few Clouds 10000 ft
2019/06/17 07:00 CYAM 170700Z 26005KT 15SM FEW061 FEW100 08/06 A3000 RMK CU2AC1 AC TR SLP164
 
KSJX - Beaver Island, Michigan, USA
Distance from station: W 60mi, 96km
Updated: 06/17/2019 3:37am
Clear
Clear
 Wind from calm
Wind: Calm
Temperature: 43°F , 6°C
Dew Point: 43°F , 6°C
Humidity: 100%
Barometer: 30.01 inHg , 1016.3 hPa
Clouds: Clear
Visibility: 10 miles , 16 km
2019/06/17 07:37 KSJX 170737Z AUTO 00000KT 10SM CLR 06/06 A3001 RMK AO2 T00630062
KACB - Bellaire, Michigan, USA
Distance from station: SW 63mi, 102km
Updated: 06/17/2019 3:37am
Clear
Clear
 Wind from calm
Wind: Calm
Temperature: 46°F , 8°C
Dew Point: 45°F , 7°C
Humidity: 93%
Barometer: 30.00 inHg , 1015.9 hPa
Clouds: Clear
Visibility: 10 miles , 16 km
2019/06/17 07:37 KACB 170737Z AUTO 00000KT 10SM CLR 08/07 A3000 RMK AO2 T00800072
 
CWNL - Great Duck Island, Ontario, Canada
Distance from station: E 66mi, 106km
Updated: 06/17/2019 3:00am

 Wind from NNW
Wind: NNW 2 mph , 4 km/h
Temperature: 45°F , 7°C
Dew Point: 41°F , 5°C
Humidity: 87%
2019/06/17 07:00 CWNL 170700Z AUTO 33002KT 07/05 RMK AO1 SLP159 T00690052 52003
KERY - Newberry, Michigan, USA
Distance from station: NW 69mi, 112km
Updated: 06/17/2019 3:36am
Clear
Clear
 Wind from calm
Wind: Calm
Temperature: 46°F , 8°C
Dew Point: 43°F , 6°C
Humidity: 87%
Barometer: 30.01 inHg , 1016.3 hPa
Clouds: Clear
Visibility: 7 miles , 11 km
2019/06/17 07:36 KERY 170736Z AUTO 00000KT 7SM CLR 08/06 A3001 RMK AO2 T00750061
 
KGOV - Grayling Af, Michigan, USA
Distance from station: SSW 70mi, 113km
Updated: 06/17/2019 3:39am
Clear
Clear
 Wind from calm
Wind: Calm
Temperature: 43°F , 6°C
Dew Point: 43°F , 6°C
Humidity: 100%
Barometer: 29.99 inHg , 1015.6 hPa
Clouds: Clear
Visibility: 10 miles , 16 km
2019/06/17 07:39 KGOV 170739Z AUTO 00000KT 10SM CLR 06/06 A2999 RMK AO2 SLP165 $